createdAt,value
2018-12-05T00:00:49.441Z,1020.86
2018-12-05T00:01:49.374Z,1020.82
2018-12-05T00:02:49.377Z,1020.86
2018-12-05T00:03:49.379Z,1020.85
2018-12-05T00:04:49.372Z,1020.83
2018-12-05T00:05:49.359Z,1020.87
2018-12-05T00:06:49.394Z,1020.81
2018-12-05T00:07:49.362Z,1020.78
2018-12-05T00:08:49.368Z,1020.76
2018-12-05T00:09:49.370Z,1020.72
2018-12-05T00:10:49.375Z,1020.74
2018-12-05T00:11:49.358Z,1020.74
2018-12-05T00:12:49.342Z,1020.74
2018-12-05T00:13:49.362Z,1020.76
2018-12-05T00:14:49.353Z,1020.81
2018-12-05T00:15:49.364Z,1020.85
2018-12-05T00:16:49.336Z,1020.86
2018-12-05T00:17:49.360Z,1020.86
2018-12-05T00:18:49.456Z,1020.86
2018-12-05T00:19:49.391Z,1020.86
2018-12-05T00:20:49.370Z,1020.84
2018-12-05T00:21:49.335Z,1020.80
2018-12-05T00:22:49.320Z,1020.77
2018-12-05T00:23:49.325Z,1020.74
2018-12-05T00:24:49.335Z,1020.71
2018-12-05T00:25:49.324Z,1020.72
2018-12-05T00:26:49.346Z,1020.70
2018-12-05T00:27:49.329Z,1020.71
2018-12-05T00:28:49.323Z,1020.67
2018-12-05T00:29:49.318Z,1020.67
2018-12-05T00:30:49.341Z,1020.68
2018-12-05T00:31:49.411Z,1020.62
2018-12-05T00:32:49.300Z,1020.64
2018-12-05T00:33:49.311Z,1020.65
2018-12-05T00:34:49.340Z,1020.65
2018-12-05T00:35:49.364Z,1020.65
2018-12-05T00:36:49.314Z,1020.64
2018-12-05T00:37:49.321Z,1020.60
2018-12-05T00:38:49.330Z,1020.63
2018-12-05T00:39:49.286Z,1020.60
2018-12-05T00:40:49.297Z,1020.62
2018-12-05T00:41:49.282Z,1020.62
2018-12-05T00:42:49.281Z,1020.60
2018-12-05T00:43:49.277Z,1020.61
2018-12-05T00:44:49.273Z,1020.61
2018-12-05T00:45:49.273Z,1020.62
2018-12-05T00:46:49.260Z,1020.64
2018-12-05T00:47:49.342Z,1020.61
2018-12-05T00:48:49.290Z,1020.65
2018-12-05T00:49:49.349Z,1020.67
2018-12-05T00:50:49.297Z,1020.72
2018-12-05T00:51:49.260Z,1020.68
2018-12-05T00:52:49.252Z,1020.65
2018-12-05T00:53:49.251Z,1020.67
2018-12-05T00:54:49.245Z,1020.62
2018-12-05T00:55:49.246Z,1020.61
2018-12-05T00:56:49.245Z,1020.64
2018-12-05T00:57:49.324Z,1020.64
2018-12-05T00:58:49.251Z,1020.65
2018-12-05T00:59:49.252Z,1020.65
2018-12-05T01:00:49.232Z,1020.67
2018-12-05T01:01:49.227Z,1020.69
2018-12-05T01:02:49.225Z,1020.67
2018-12-05T01:03:49.249Z,1020.70
2018-12-05T01:04:49.228Z,1020.76
2018-12-05T01:05:49.223Z,1020.75
2018-12-05T01:06:49.222Z,1020.77
2018-12-05T01:07:49.214Z,1020.81
2018-12-05T01:08:49.218Z,1020.84
2018-12-05T01:09:49.218Z,1020.82
2018-12-05T01:10:49.217Z,1020.86
2018-12-05T01:11:49.211Z,1020.85
2018-12-05T01:12:49.216Z,1020.83
2018-12-05T01:13:49.210Z,1020.79
2018-12-05T01:14:49.215Z,1020.79
2018-12-05T01:15:50.778Z,1020.75
2018-12-05T01:16:49.243Z,1020.72
2018-12-05T01:17:49.230Z,1020.69
2018-12-05T01:18:49.200Z,1020.68
2018-12-05T01:19:49.208Z,1020.63
2018-12-05T01:20:49.232Z,1020.70
2018-12-05T01:21:49.173Z,1020.65
2018-12-05T01:22:49.205Z,1020.66
2018-12-05T01:23:49.170Z,1020.65
2018-12-05T01:24:49.182Z,1020.58
2018-12-05T01:25:49.189Z,1020.60
2018-12-05T01:26:49.219Z,1020.62
2018-12-05T01:27:49.173Z,1020.67
2018-12-05T01:28:49.164Z,1020.66
2018-12-05T01:29:49.174Z,1020.69
2018-12-05T01:30:49.157Z,1020.72
2018-12-05T01:31:49.155Z,1020.69
2018-12-05T01:32:49.168Z,1020.70
2018-12-05T01:33:49.161Z,1020.70
2018-12-05T01:34:49.160Z,1020.77
2018-12-05T01:35:49.153Z,1020.74
2018-12-05T01:36:49.146Z,1020.75
2018-12-05T01:37:49.151Z,1020.72
2018-12-05T01:38:49.137Z,1020.68
2018-12-05T01:39:49.149Z,1020.66
2018-12-05T01:40:49.127Z,1020.65
2018-12-05T01:41:49.126Z,1020.61
2018-12-05T01:42:49.148Z,1020.63
2018-12-05T01:43:49.144Z,1020.66
2018-12-05T01:44:49.116Z,1020.63
2018-12-05T01:45:49.114Z,1020.62
2018-12-05T01:46:49.125Z,1020.60
2018-12-05T01:47:49.110Z,1020.64
2018-12-05T01:48:49.110Z,1020.64
2018-12-05T01:49:49.111Z,1020.67
2018-12-05T01:50:49.100Z,1020.69
2018-12-05T01:51:49.106Z,1020.70
2018-12-05T01:52:49.120Z,1020.69
2018-12-05T01:53:49.096Z,1020.70
2018-12-05T01:54:49.100Z,1020.68
2018-12-05T01:55:49.104Z,1020.71
2018-12-05T01:56:49.099Z,1020.66
2018-12-05T01:57:49.101Z,1020.69
2018-12-05T01:58:49.102Z,1020.65
2018-12-05T01:59:49.110Z,1020.66
2018-12-05T02:00:49.096Z,1020.66
2018-12-05T02:01:49.083Z,1020.64
2018-12-05T02:02:49.134Z,1020.64
2018-12-05T02:03:49.105Z,1020.64
2018-12-05T02:04:49.085Z,1020.66
2018-12-05T02:05:49.092Z,1020.66
2018-12-05T02:06:49.094Z,1020.65
2018-12-05T02:07:49.061Z,1020.68
2018-12-05T02:08:49.064Z,1020.63
2018-12-05T02:09:49.069Z,1020.64
2018-12-05T02:10:49.086Z,1020.64
2018-12-05T02:11:49.051Z,1020.61
2018-12-05T02:12:49.049Z,1020.65
2018-12-05T02:13:49.045Z,1020.62
2018-12-05T02:14:49.052Z,1020.63
2018-12-05T02:15:49.051Z,1020.64
2018-12-05T02:16:49.047Z,1020.64
2018-12-05T02:17:49.031Z,1020.66
2018-12-05T02:18:49.044Z,1020.65
2018-12-05T02:19:49.033Z,1020.62
2018-12-05T02:20:49.029Z,1020.70
2018-12-05T02:21:49.061Z,1020.71
2018-12-05T02:22:49.025Z,1020.68
2018-12-05T02:23:49.055Z,1020.72
2018-12-05T02:24:49.045Z,1020.72
2018-12-05T02:25:49.032Z,1020.69
2018-12-05T02:26:49.024Z,1020.65
2018-12-05T02:27:49.014Z,1020.69
2018-12-05T02:28:49.008Z,1020.75
2018-12-05T02:29:49.032Z,1020.76
2018-12-05T02:30:49.027Z,1020.74
2018-12-05T02:31:49.031Z,1020.72
2018-12-05T02:32:49.024Z,1020.77
2018-12-05T02:33:49.014Z,1020.74
2018-12-05T02:34:49.021Z,1020.78
2018-12-05T02:35:48.997Z,1020.79
2018-12-05T02:36:49.004Z,1020.78
2018-12-05T02:37:48.997Z,1020.78
2018-12-05T02:38:49.000Z,1020.78
2018-12-05T02:39:48.977Z,1020.73
2018-12-05T02:40:48.973Z,1020.74
2018-12-05T02:41:48.980Z,1020.68
2018-12-05T02:42:48.975Z,1020.70
2018-12-05T02:43:48.983Z,1020.66
2018-12-05T02:44:48.988Z,1020.66
2018-12-05T02:45:48.991Z,1020.64
2018-12-05T02:46:48.967Z,1020.62
2018-12-05T02:47:48.975Z,1020.62
2018-12-05T02:48:48.987Z,1020.66
2018-12-05T02:49:48.981Z,1020.62
2018-12-05T02:50:48.962Z,1020.62
2018-12-05T02:51:48.947Z,1020.61
2018-12-05T02:52:48.967Z,1020.59
2018-12-05T02:53:48.956Z,1020.60
2018-12-05T02:54:48.968Z,1020.63
2018-12-05T02:55:49.062Z,1020.62
2018-12-05T02:56:48.946Z,1020.62
2018-12-05T02:57:48.934Z,1020.60
2018-12-05T02:58:48.985Z,1020.61
2018-12-05T02:59:48.939Z,1020.59
2018-12-05T03:00:48.934Z,1020.67
2018-12-05T03:01:48.931Z,1020.66
2018-12-05T03:02:48.944Z,1020.67
2018-12-05T03:03:48.919Z,1020.59
2018-12-05T03:04:48.915Z,1020.64
2018-12-05T03:05:48.928Z,1020.63
2018-12-05T03:06:48.937Z,1020.61
2018-12-05T03:07:48.937Z,1020.59
2018-12-05T03:08:48.904Z,1020.61
2018-12-05T03:09:48.917Z,1020.58
2018-12-05T03:10:48.924Z,1020.56
2018-12-05T03:11:48.972Z,1020.57
2018-12-05T03:12:48.895Z,1020.55
2018-12-05T03:13:49.009Z,1020.54
2018-12-05T03:14:48.903Z,1020.52
2018-12-05T03:15:48.891Z,1020.49
2018-12-05T03:16:48.887Z,1020.51
2018-12-05T03:17:48.898Z,1020.52
2018-12-05T03:18:48.893Z,1020.49
2018-12-05T03:19:48.873Z,1020.50
2018-12-05T03:20:48.873Z,1020.48
2018-12-05T03:21:48.888Z,1020.45
2018-12-05T03:22:48.872Z,1020.47
2018-12-05T03:23:48.894Z,1020.45
2018-12-05T03:24:48.870Z,1020.48
2018-12-05T03:25:48.853Z,1020.47
2018-12-05T03:26:48.853Z,1020.51
2018-12-05T03:27:48.871Z,1020.55
2018-12-05T03:28:48.877Z,1020.57
2018-12-05T03:29:48.841Z,1020.56
2018-12-05T03:30:48.857Z,1020.57
2018-12-05T03:31:48.845Z,1020.59
2018-12-05T03:32:48.881Z,1020.61
2018-12-05T03:33:48.840Z,1020.59
2018-12-05T03:34:48.860Z,1020.57
2018-12-05T03:35:48.829Z,1020.58
2018-12-05T03:36:48.842Z,1020.57
2018-12-05T03:37:48.826Z,1020.57
2018-12-05T03:38:48.852Z,1020.60
2018-12-05T03:39:48.826Z,1020.61
2018-12-05T03:40:48.837Z,1020.60
2018-12-05T03:41:48.837Z,1020.58
2018-12-05T03:42:48.806Z,1020.59
2018-12-05T03:43:48.826Z,1020.58
2018-12-05T03:44:48.829Z,1020.58
2018-12-05T03:45:48.836Z,1020.56
2018-12-05T03:46:48.799Z,1020.51
2018-12-05T03:47:48.797Z,1020.50
2018-12-05T03:48:48.797Z,1020.52
2018-12-05T03:49:48.812Z,1020.49
2018-12-05T03:50:48.789Z,1020.47
2018-12-05T03:51:48.781Z,1020.46
2018-12-05T03:52:48.776Z,1020.44
2018-12-05T03:53:48.788Z,1020.44
2018-12-05T03:54:48.782Z,1020.41
2018-12-05T03:55:48.776Z,1020.40
2018-12-05T03:56:48.786Z,1020.41
2018-12-05T03:57:48.768Z,1020.43
2018-12-05T03:58:48.776Z,1020.45
2018-12-05T03:59:48.771Z,1020.43
2018-12-05T04:00:48.774Z,1020.42
2018-12-05T04:01:48.789Z,1020.42
2018-12-05T04:02:48.794Z,1020.40
2018-12-05T04:03:48.758Z,1020.41
2018-12-05T04:04:48.767Z,1020.38
2018-12-05T04:05:48.756Z,1020.35
2018-12-05T04:06:48.757Z,1020.34
2018-12-05T04:07:48.748Z,1020.35
2018-12-05T04:08:48.750Z,1020.34
2018-12-05T04:09:48.734Z,1020.34
2018-12-05T04:10:48.756Z,1020.35
2018-12-05T04:11:48.745Z,1020.36
2018-12-05T04:12:48.754Z,1020.33
2018-12-05T04:13:48.727Z,1020.33
2018-12-05T04:14:48.722Z,1020.35
2018-12-05T04:15:48.729Z,1020.39
2018-12-05T04:16:48.717Z,1020.34
2018-12-05T04:17:48.716Z,1020.39
2018-12-05T04:18:48.735Z,1020.39
2018-12-05T04:19:48.713Z,1020.37
2018-12-05T04:20:48.717Z,1020.42
2018-12-05T04:21:48.701Z,1020.43
2018-12-05T04:22:48.712Z,1020.43
2018-12-05T04:23:48.699Z,1020.50
2018-12-05T04:24:48.704Z,1020.51
2018-12-05T04:25:48.687Z,1020.46
2018-12-05T04:26:48.689Z,1020.50
2018-12-05T04:27:48.681Z,1020.47
2018-12-05T04:28:48.685Z,1020.45
2018-12-05T04:29:48.679Z,1020.46
2018-12-05T04:30:48.684Z,1020.43
2018-12-05T04:31:48.680Z,1020.43
2018-12-05T04:32:48.678Z,1020.43
2018-12-05T04:33:48.679Z,1020.47
2018-12-05T04:34:48.664Z,1020.43
2018-12-05T04:35:48.679Z,1020.41
2018-12-05T04:36:48.677Z,1020.44
2018-12-05T04:37:48.715Z,1020.41
2018-12-05T04:38:48.672Z,1020.43
2018-12-05T04:39:48.663Z,1020.43
2018-12-05T04:40:48.651Z,1020.48
2018-12-05T04:41:48.652Z,1020.44
2018-12-05T04:42:48.661Z,1020.48
2018-12-05T04:43:48.651Z,1020.46
2018-12-05T04:44:48.633Z,1020.50
2018-12-05T04:45:48.644Z,1020.52
2018-12-05T04:46:48.629Z,1020.51
2018-12-05T04:47:48.641Z,1020.51
2018-12-05T04:48:48.639Z,1020.52
2018-12-05T04:49:48.621Z,1020.51
2018-12-05T04:50:48.706Z,1020.44
2018-12-05T04:51:48.633Z,1020.45
2018-12-05T04:52:48.612Z,1020.44
2018-12-05T04:53:48.601Z,1020.45
2018-12-05T04:54:48.618Z,1020.42
2018-12-05T04:55:48.608Z,1020.39
2018-12-05T04:56:48.619Z,1020.39
2018-12-05T04:57:48.597Z,1020.42
2018-12-05T04:58:48.595Z,1020.41
2018-12-05T04:59:48.597Z,1020.39
2018-12-05T05:00:48.602Z,1020.40
2018-12-05T05:01:48.582Z,1020.37
2018-12-05T05:02:48.616Z,1020.38
2018-12-05T05:03:48.583Z,1020.41
2018-12-05T05:04:48.581Z,1020.38
2018-12-05T05:05:48.580Z,1020.37
2018-12-05T05:06:48.588Z,1020.33
2018-12-05T05:07:48.576Z,1020.31
2018-12-05T05:08:48.605Z,1020.33
2018-12-05T05:09:48.560Z,1020.33
2018-12-05T05:10:48.563Z,1020.27
2018-12-05T05:11:48.545Z,1020.26
2018-12-05T05:12:48.549Z,1020.26
2018-12-05T05:13:48.553Z,1020.24
2018-12-05T05:14:48.541Z,1020.30
2018-12-05T05:15:48.539Z,1020.30
2018-12-05T05:16:48.542Z,1020.26
2018-12-05T05:17:48.547Z,1020.27
2018-12-05T05:18:48.537Z,1020.21
2018-12-05T05:19:48.544Z,1020.25
2018-12-05T05:20:48.526Z,1020.25
2018-12-05T05:21:48.521Z,1020.27
2018-12-05T05:22:48.537Z,1020.28
2018-12-05T05:23:48.522Z,1020.24
2018-12-05T05:24:48.509Z,1020.24
2018-12-05T05:25:48.520Z,1020.26
2018-12-05T05:26:48.506Z,1020.20
2018-12-05T05:27:48.519Z,1020.24
2018-12-05T05:28:48.542Z,1020.17
2018-12-05T05:29:48.525Z,1020.18
2018-12-05T05:30:48.549Z,1020.15
2018-12-05T05:31:48.510Z,1020.14
2018-12-05T05:32:48.490Z,1020.18
2018-12-05T05:33:48.501Z,1020.12
2018-12-05T05:34:48.490Z,1020.13
2018-12-05T05:35:48.488Z,1020.16
2018-12-05T05:36:48.483Z,1020.15
2018-12-05T05:37:48.513Z,1020.12
2018-12-05T05:38:48.483Z,1020.13
2018-12-05T05:39:48.494Z,1020.09
2018-12-05T05:40:48.493Z,1020.14
2018-12-05T05:41:48.504Z,1020.14
2018-12-05T05:42:48.476Z,1020.14
2018-12-05T05:43:48.459Z,1020.15
2018-12-05T05:44:48.453Z,1020.14
2018-12-05T05:45:48.456Z,1020.15
2018-12-05T05:46:48.455Z,1020.10
2018-12-05T05:47:48.459Z,1020.15
2018-12-05T05:48:48.459Z,1020.15
2018-12-05T05:49:48.442Z,1020.14
2018-12-05T05:50:48.431Z,1020.16
2018-12-05T05:51:48.430Z,1020.16
2018-12-05T05:52:48.470Z,1020.17
2018-12-05T05:53:48.453Z,1020.20
2018-12-05T05:54:48.413Z,1020.19
2018-12-05T05:55:48.419Z,1020.21
2018-12-05T05:56:48.409Z,1020.21
2018-12-05T05:57:48.442Z,1020.23
2018-12-05T05:58:48.430Z,1020.26
2018-12-05T05:59:48.420Z,1020.27
2018-12-05T06:00:48.426Z,1020.30
2018-12-05T06:01:48.404Z,1020.32
2018-12-05T06:02:48.405Z,1020.34
2018-12-05T06:03:48.387Z,1020.34
2018-12-05T06:04:48.395Z,1020.36
2018-12-05T06:05:48.391Z,1020.41
2018-12-05T06:06:48.408Z,1020.36
2018-12-05T06:07:48.380Z,1020.36
2018-12-05T06:08:48.378Z,1020.41
2018-12-05T06:09:48.384Z,1020.39
2018-12-05T06:10:48.389Z,1020.39
2018-12-05T06:11:48.372Z,1020.42
2018-12-05T06:12:48.369Z,1020.36
2018-12-05T06:13:48.366Z,1020.32
2018-12-05T06:14:48.362Z,1020.28
2018-12-05T06:15:48.355Z,1020.23
2018-12-05T06:16:48.352Z,1020.23
2018-12-05T06:17:48.361Z,1020.21
2018-12-05T06:18:48.378Z,1020.23
2018-12-05T06:19:48.367Z,1020.26
2018-12-05T06:20:48.369Z,1020.31
2018-12-05T06:21:48.343Z,1020.35
2018-12-05T06:22:48.375Z,1020.31
2018-12-05T06:23:48.338Z,1020.29
2018-12-05T06:24:48.321Z,1020.31
2018-12-05T06:25:48.338Z,1020.28
2018-12-05T06:26:48.320Z,1020.34
2018-12-05T06:27:48.317Z,1020.33
2018-12-05T06:28:48.321Z,1020.34
2018-12-05T06:29:48.320Z,1020.29
2018-12-05T06:30:48.328Z,1020.33
2018-12-05T06:31:48.320Z,1020.29
2018-12-05T06:32:48.321Z,1020.31
2018-12-05T06:33:48.359Z,1020.33
2018-12-05T06:34:48.295Z,1020.38
2018-12-05T06:35:48.286Z,1020.32
2018-12-05T06:36:48.299Z,1020.35
2018-12-05T06:37:48.308Z,1020.38
2018-12-05T06:38:48.282Z,1020.35
2018-12-05T06:39:48.295Z,1020.37
2018-12-05T06:40:48.294Z,1020.35
2018-12-05T06:41:48.290Z,1020.37
2018-12-05T06:42:48.292Z,1020.37
2018-12-05T06:43:48.274Z,1020.33
2018-12-05T06:44:48.274Z,1020.35
2018-12-05T06:45:48.288Z,1020.31
2018-12-05T06:46:48.261Z,1020.35
2018-12-05T06:47:48.264Z,1020.33
2018-12-05T06:48:48.261Z,1020.37
2018-12-05T06:49:48.274Z,1020.40
2018-12-05T06:50:48.252Z,1020.40
2018-12-05T06:51:48.251Z,1020.42
2018-12-05T06:52:48.328Z,1020.40
2018-12-05T06:53:48.257Z,1020.41
2018-12-05T06:54:48.242Z,1020.43
2018-12-05T06:55:48.230Z,1020.43
2018-12-05T06:56:48.241Z,1020.42
2018-12-05T06:57:48.226Z,1020.38
2018-12-05T06:58:48.229Z,1020.37
2018-12-05T06:59:48.219Z,1020.39
2018-12-05T07:00:48.231Z,1020.41
2018-12-05T07:01:48.210Z,1020.37
2018-12-05T07:02:48.221Z,1020.39
2018-12-05T07:03:48.227Z,1020.38
2018-12-05T07:04:48.218Z,1020.40
2018-12-05T07:05:48.209Z,1020.39
2018-12-05T07:06:48.221Z,1020.34
2018-12-05T07:07:48.193Z,1020.36
2018-12-05T07:08:48.196Z,1020.37
2018-12-05T07:09:48.216Z,1020.38
2018-12-05T07:10:48.209Z,1020.33
2018-12-05T07:11:48.192Z,1020.38
2018-12-05T07:12:48.199Z,1020.40
2018-12-05T07:13:48.193Z,1020.42
2018-12-05T07:14:48.204Z,1020.43
2018-12-05T07:15:48.225Z,1020.41
2018-12-05T07:16:48.209Z,1020.37
2018-12-05T07:17:48.185Z,1020.32
2018-12-05T07:18:48.164Z,1020.28
2018-12-05T07:19:48.177Z,1020.29
2018-12-05T07:20:48.194Z,1020.31
2018-12-05T07:21:48.149Z,1020.35
2018-12-05T07:22:48.206Z,1020.33
2018-12-05T07:23:48.166Z,1020.35
2018-12-05T07:24:48.177Z,1020.37
2018-12-05T07:25:48.158Z,1020.37
2018-12-05T07:26:48.164Z,1020.35
2018-12-05T07:27:48.171Z,1020.35
2018-12-05T07:28:48.158Z,1020.29
2018-12-05T07:29:48.131Z,1020.29
2018-12-05T07:30:48.139Z,1020.28
2018-12-05T07:31:48.128Z,1020.29
2018-12-05T07:32:48.149Z,1020.26
2018-12-05T07:33:48.179Z,1020.25
2018-12-05T07:34:48.138Z,1020.28
2018-12-05T07:35:48.122Z,1020.27
2018-12-05T07:36:48.103Z,1020.28
2018-12-05T07:37:48.151Z,1020.28
2018-12-05T07:38:48.105Z,1020.32
2018-12-05T07:39:48.088Z,1020.33
2018-12-05T07:40:48.097Z,1020.34
2018-12-05T07:41:48.106Z,1020.32
2018-12-05T07:42:48.095Z,1020.34
2018-12-05T07:43:48.089Z,1020.33
2018-12-05T07:44:48.082Z,1020.31
2018-12-05T07:45:48.083Z,1020.34
2018-12-05T07:46:48.094Z,1020.29
2018-12-05T07:47:48.086Z,1020.27
2018-12-05T07:48:48.078Z,1020.32
2018-12-05T07:49:48.069Z,1020.27
2018-12-05T07:50:48.067Z,1020.25
2018-12-05T07:51:48.057Z,1020.31
2018-12-05T07:52:48.052Z,1020.27
2018-12-05T07:53:48.051Z,1020.28
2018-12-05T07:54:48.075Z,1020.25
2018-12-05T07:55:48.058Z,1020.25
2018-12-05T07:56:48.035Z,1020.28
2018-12-05T07:57:48.060Z,1020.28
2018-12-05T07:58:48.050Z,1020.24
2018-12-05T07:59:48.048Z,1020.24
2018-12-05T08:00:48.042Z,1020.26
2018-12-05T08:01:48.037Z,1020.30
2018-12-05T08:02:48.028Z,1020.30
2018-12-05T08:03:48.023Z,1020.30
2018-12-05T08:04:48.014Z,1020.33
2018-12-05T08:05:48.103Z,1020.29
2018-12-05T08:06:48.084Z,1020.34
2018-12-05T08:07:48.028Z,1020.33
2018-12-05T08:08:48.008Z,1020.33
2018-12-05T08:09:48.013Z,1020.34
2018-12-05T08:10:48.000Z,1020.32
2018-12-05T08:11:47.998Z,1020.39
2018-12-05T08:12:48.888Z,1020.35
2018-12-05T08:13:48.013Z,1020.35
2018-12-05T08:14:47.996Z,1020.31
2018-12-05T08:15:47.991Z,1020.28
2018-12-05T08:16:47.987Z,1020.29
2018-12-05T08:17:48.010Z,1020.24
2018-12-05T08:18:48.030Z,1020.24
2018-12-05T08:19:48.344Z,1020.20
2018-12-05T08:20:47.985Z,1020.21
2018-12-05T08:21:47.981Z,1020.19
2018-12-05T08:22:47.976Z,1020.22
2018-12-05T08:23:47.977Z,1020.19
2018-12-05T08:24:47.953Z,1020.18
2018-12-05T08:25:48.001Z,1020.17
2018-12-05T08:26:47.968Z,1020.16
2018-12-05T08:27:47.974Z,1020.11
2018-12-05T08:28:48.039Z,1020.11
2018-12-05T08:29:47.957Z,1020.12
2018-12-05T08:30:47.952Z,1020.10
2018-12-05T08:31:47.952Z,1020.12
2018-12-05T08:32:48.176Z,1020.11
2018-12-05T08:33:47.989Z,1020.11
2018-12-05T08:34:47.956Z,1020.05
2018-12-05T08:35:47.965Z,1020.04
2018-12-05T08:36:47.942Z,1020.07
2018-12-05T08:37:48.011Z,1020.09
2018-12-05T08:38:47.941Z,1020.07
2018-12-05T08:39:47.981Z,1020.06
2018-12-05T08:40:47.950Z,1020.08
2018-12-05T08:41:47.948Z,1020.05
2018-12-05T08:42:47.922Z,1020.06
2018-12-05T08:43:47.915Z,1020.03
2018-12-05T08:44:47.919Z,1020.05
2018-12-05T08:45:47.908Z,1020.06
2018-12-05T08:46:47.914Z,1020.11
2018-12-05T08:47:47.918Z,1020.13
2018-12-05T08:48:47.902Z,1020.11
2018-12-05T08:49:47.909Z,1020.02
2018-12-05T08:50:47.917Z,1020.03
2018-12-05T08:51:47.916Z,1020.03
2018-12-05T08:52:47.917Z,1020.00
2018-12-05T08:53:47.890Z,1020.04
2018-12-05T08:54:47.942Z,1020.05
2018-12-05T08:55:47.882Z,1020.05
2018-12-05T08:56:47.891Z,1019.98
2018-12-05T08:57:47.941Z,1019.98
2018-12-05T08:58:47.923Z,1019.98
2018-12-05T08:59:47.893Z,1019.96
2018-12-05T09:00:47.893Z,1019.93
2018-12-05T09:01:47.891Z,1019.89
2018-12-05T09:02:47.890Z,1019.89
2018-12-05T09:03:47.877Z,1019.93
2018-12-05T09:04:47.891Z,1019.88
2018-12-05T09:05:47.898Z,1019.83
2018-12-05T09:06:47.862Z,1019.84
2018-12-05T09:07:48.039Z,1019.76
2018-12-05T09:08:47.976Z,1019.78
2018-12-05T09:09:47.859Z,1019.78
2018-12-05T09:10:47.861Z,1019.74
2018-12-05T09:11:47.909Z,1019.80
2018-12-05T09:12:47.911Z,1019.82
2018-12-05T09:13:47.849Z,1019.81
2018-12-05T09:14:47.851Z,1019.81
2018-12-05T09:15:47.886Z,1019.75
2018-12-05T09:16:47.882Z,1019.75
2018-12-05T09:17:47.853Z,1019.74
2018-12-05T09:18:47.867Z,1019.75
2018-12-05T09:19:47.874Z,1019.74
2018-12-05T09:20:47.835Z,1019.76
2018-12-05T09:21:47.835Z,1019.74
2018-12-05T09:22:47.841Z,1019.76
2018-12-05T09:23:47.904Z,1019.72
2018-12-05T09:24:47.867Z,1019.75
2018-12-05T09:25:47.839Z,1019.74
2018-12-05T09:26:47.821Z,1019.77
2018-12-05T09:27:47.820Z,1019.72
2018-12-05T09:28:47.830Z,1019.75
2018-12-05T09:29:47.945Z,1019.76
2018-12-05T09:30:47.834Z,1019.73
2018-12-05T09:31:47.819Z,1019.71
2018-12-05T09:32:47.869Z,1019.76
2018-12-05T09:33:47.830Z,1019.72
2018-12-05T09:34:47.801Z,1019.72
2018-12-05T09:35:47.825Z,1019.78
2018-12-05T09:36:47.826Z,1019.68
2018-12-05T09:37:47.803Z,1019.63
2018-12-05T09:38:47.801Z,1019.59
2018-12-05T09:39:47.809Z,1019.59
2018-12-05T09:40:47.806Z,1019.58
2018-12-05T09:41:47.800Z,1019.58
2018-12-05T09:42:47.789Z,1019.58
2018-12-05T09:43:47.792Z,1019.53
2018-12-05T09:44:47.797Z,1019.50
2018-12-05T09:45:47.837Z,1019.51
2018-12-05T09:46:47.790Z,1019.50
2018-12-05T09:47:47.801Z,1019.46
2018-12-05T09:48:47.869Z,1019.47
2018-12-05T09:49:47.795Z,1019.42
2018-12-05T09:50:47.803Z,1019.39
2018-12-05T09:51:47.807Z,1019.43
2018-12-05T09:52:47.801Z,1019.42
2018-12-05T09:53:47.772Z,1019.46
2018-12-05T09:54:47.838Z,1019.44
2018-12-05T09:55:47.818Z,1019.47
2018-12-05T09:56:47.774Z,1019.47
2018-12-05T09:57:47.758Z,1019.47
2018-12-05T09:58:47.761Z,1019.39
2018-12-05T09:59:47.772Z,1019.41
2018-12-05T10:00:47.756Z,1019.41
2018-12-05T10:01:47.858Z,1019.43
2018-12-05T10:02:47.795Z,1019.41
2018-12-05T10:03:47.861Z,1019.39
2018-12-05T10:04:47.802Z,1019.34
2018-12-05T10:05:47.803Z,1019.30
2018-12-05T10:06:47.805Z,1019.28
2018-12-05T10:07:47.827Z,1019.30
2018-12-05T10:08:47.758Z,1019.31
2018-12-05T10:09:47.812Z,1019.25
2018-12-05T10:10:47.756Z,1019.22
2018-12-05T10:11:47.746Z,1019.26
2018-12-05T10:12:47.744Z,1019.27
2018-12-05T10:13:47.748Z,1019.24
2018-12-05T10:14:47.774Z,1019.23
2018-12-05T10:15:47.755Z,1019.21
2018-12-05T10:16:47.761Z,1019.17
2018-12-05T10:17:47.781Z,1019.12
2018-12-05T10:18:47.783Z,1019.07
2018-12-05T10:19:47.736Z,1019.10
2018-12-05T10:20:47.736Z,1019.07
2018-12-05T10:21:47.732Z,1019.12
2018-12-05T10:22:47.739Z,1019.05
2018-12-05T10:23:47.750Z,1019.01
2018-12-05T10:24:47.726Z,1019.04
2018-12-05T10:25:47.733Z,1019.02
2018-12-05T10:26:47.719Z,1019.02
2018-12-05T10:27:47.741Z,1019.00
2018-12-05T10:28:47.748Z,1019.07
2018-12-05T10:29:47.727Z,1019.08
2018-12-05T10:30:47.732Z,1019.00
2018-12-05T10:31:47.711Z,1019.01
2018-12-05T10:32:47.721Z,1019.02
2018-12-05T10:33:47.707Z,1018.99
2018-12-05T10:34:47.708Z,1018.97
2018-12-05T10:35:47.723Z,1018.97
2018-12-05T10:36:47.781Z,1018.95
2018-12-05T10:37:47.707Z,1018.92
2018-12-05T10:38:47.762Z,1018.94
2018-12-05T10:39:47.741Z,1018.90
2018-12-05T10:40:47.732Z,1018.84
2018-12-05T10:41:47.735Z,1018.83
2018-12-05T10:42:47.733Z,1018.78
2018-12-05T10:43:47.726Z,1018.79
2018-12-05T10:44:47.739Z,1018.78
2018-12-05T10:45:47.700Z,1018.81
2018-12-05T10:46:47.705Z,1018.77
2018-12-05T10:47:47.808Z,1018.72
2018-12-05T10:48:48.467Z,1018.71
2018-12-05T10:49:47.713Z,1018.69
2018-12-05T10:50:47.798Z,1018.64
2018-12-05T10:51:48.359Z,1018.67
2018-12-05T10:52:47.785Z,1018.64
2018-12-05T10:53:47.687Z,1018.62
2018-12-05T10:54:47.721Z,1018.61
2018-12-05T10:55:47.695Z,1018.62
2018-12-05T10:56:47.820Z,1018.55
2018-12-05T10:57:47.672Z,1018.53
2018-12-05T10:58:47.664Z,1018.55
2018-12-05T10:59:47.681Z,1018.52
2018-12-05T11:00:47.760Z,1018.52
2018-12-05T11:01:47.673Z,1018.47
2018-12-05T11:02:47.684Z,1018.46
2018-12-05T11:03:47.662Z,1018.43
2018-12-05T11:04:47.680Z,1018.44
2018-12-05T11:05:47.660Z,1018.44
2018-12-05T11:06:47.674Z,1018.43
2018-12-05T11:07:47.707Z,1018.43
2018-12-05T11:08:47.777Z,1018.44
2018-12-05T11:09:47.657Z,1018.38
2018-12-05T11:10:47.699Z,1018.38
2018-12-05T11:11:47.704Z,1018.35
2018-12-05T11:12:47.734Z,1018.35
2018-12-05T11:13:47.679Z,1018.31
2018-12-05T11:14:47.751Z,1018.32
2018-12-05T11:15:47.710Z,1018.29
2018-12-05T11:16:47.657Z,1018.30
2018-12-05T11:17:47.660Z,1018.24
2018-12-05T11:18:47.684Z,1018.20
2018-12-05T11:19:47.728Z,1018.17
2018-12-05T11:20:47.937Z,1018.15
2018-12-05T11:21:49.789Z,1018.15
2018-12-05T11:22:47.642Z,1018.14
2018-12-05T11:23:47.666Z,1018.12
2018-12-05T11:24:47.669Z,1018.16
2018-12-05T11:25:47.710Z,1018.09
2018-12-05T11:26:47.665Z,1018.09
2018-12-05T11:27:47.645Z,1018.07
2018-12-05T11:28:47.661Z,1018.06
2018-12-05T11:29:47.656Z,1018.01
2018-12-05T11:30:47.655Z,1018.03
2018-12-05T11:31:47.614Z,1017.99
2018-12-05T11:32:47.651Z,1018.02
2018-12-05T11:33:47.653Z,1018.03
2018-12-05T11:34:47.663Z,1018.02
2018-12-05T11:35:47.614Z,1018.05
2018-12-05T11:36:47.649Z,1018.04
2018-12-05T11:37:47.616Z,1018.03
2018-12-05T11:38:47.630Z,1018.00
2018-12-05T11:39:47.664Z,1018.00
2018-12-05T11:40:47.635Z,1017.99
2018-12-05T11:41:47.620Z,1017.91
2018-12-05T11:42:47.601Z,1017.91
2018-12-05T11:43:47.597Z,1017.91
2018-12-05T11:44:47.620Z,1017.89
2018-12-05T11:45:47.636Z,1017.85
2018-12-05T11:46:48.565Z,1017.83
2018-12-05T11:47:47.602Z,1017.76
2018-12-05T11:48:47.643Z,1017.76
2018-12-05T11:49:47.592Z,1017.70
2018-12-05T11:50:47.594Z,1017.72
2018-12-05T11:51:47.586Z,1017.69
2018-12-05T11:52:47.581Z,1017.67
2018-12-05T11:53:47.649Z,1017.66
2018-12-05T11:54:47.586Z,1017.64
2018-12-05T11:55:47.586Z,1017.60
2018-12-05T11:56:47.607Z,1017.64
2018-12-05T11:57:47.611Z,1017.64
2018-12-05T11:58:47.599Z,1017.57
2018-12-05T11:59:47.668Z,1017.56
2018-12-05T12:00:47.596Z,1017.60
2018-12-05T12:01:47.582Z,1017.56
2018-12-05T12:02:47.621Z,1017.56
2018-12-05T12:03:47.590Z,1017.51
2018-12-05T12:04:47.590Z,1017.51
2018-12-05T12:05:47.574Z,1017.52